sensor_id;sensor_type;location;lat;lon;timestamp;noise_LAeq;noise_LA_min;noise_LA_max;noise_LA01;noise_LA95
61095;Laerm;20450;49.074;9.158;2023-08-21T00:00:17;39.12;35.36;41.22;;
61095;Laerm;20450;49.074;9.158;2023-08-21T00:02:48;38.80;35.36;41.38;;
61095;Laerm;20450;49.074;9.158;2023-08-21T00:05:18;38.88;35.94;44.82;;
61095;Laerm;20450;49.074;9.158;2023-08-21T00:07:47;38.90;35.59;41.89;;
61095;Laerm;20450;49.074;9.158;2023-08-21T00:10:15;39.20;35.94;42.88;;
61095;Laerm;20450;49.074;9.158;2023-08-21T00:12:43;38.83;35.36;42.03;;
61095;Laerm;20450;49.074;9.158;2023-08-21T00:15:15;38.98;35.94;43.72;;
61095;Laerm;20450;49.074;9.158;2023-08-21T00:17:44;38.96;35.66;41.14;;
61095;Laerm;20450;49.074;9.158;2023-08-21T00:20:14;40.06;38.05;41.68;;
61095;Laerm;20450;49.074;9.158;2023-08-21T00:22:41;40.65;38.95;42.03;;
61095;Laerm;20450;49.074;9.158;2023-08-21T00:25:10;41.21;39.08;49.40;;
61095;Laerm;20450;49.074;9.158;2023-08-21T00:27:37;40.81;39.08;42.22;;
61095;Laerm;20450;49.074;9.158;2023-08-21T00:30:05;40.98;38.95;43.81;;
61095;Laerm;20450;49.074;9.158;2023-08-21T00:32:32;41.21;39.70;42.65;;
61095;Laerm;20450;49.074;9.158;2023-08-21T00:35:00;41.37;39.70;44.39;;
61095;Laerm;20450;49.074;9.158;2023-08-21T00:37:27;41.56;40.03;42.82;;
61095;Laerm;20450;49.074;9.158;2023-08-21T00:39:54;41.64;40.33;42.88;;
61095;Laerm;20450;49.074;9.158;2023-08-21T00:42:22;41.64;40.23;42.93;;
61095;Laerm;20450;49.074;9.158;2023-08-21T00:44:49;41.58;40.13;42.76;;
61095;Laerm;20450;49.074;9.158;2023-08-21T00:47:16;41.72;40.43;43.05;;
61095;Laerm;20450;49.074;9.158;2023-08-21T00:49:43;41.63;39.21;43.54;;
61095;Laerm;20450;49.074;9.158;2023-08-21T00:52:12;41.70;40.33;42.93;;
61095;Laerm;20450;49.074;9.158;2023-08-21T00:54:40;41.50;40.03;42.82;;
61095;Laerm;20450;49.074;9.158;2023-08-21T00:57:07;41.72;40.03;42.90;;
61095;Laerm;20450;49.074;9.158;2023-08-21T00:59:37;42.11;40.71;43.19;;
61095;Laerm;20450;49.074;9.158;2023-08-21T01:02:04;42.20;40.80;43.39;;
61095;Laerm;20450;49.074;9.158;2023-08-21T01:04:32;42.24;40.71;43.39;;
61095;Laerm;20450;49.074;9.158;2023-08-21T01:06:59;42.20;40.80;43.44;;
61095;Laerm;20450;49.074;9.158;2023-08-21T01:09:33;42.07;40.23;43.34;;
61095;Laerm;20450;49.074;9.158;2023-08-21T01:12:22;42.18;40.62;43.39;;
61095;Laerm;20450;49.074;9.158;2023-08-21T01:14:59;42.47;40.80;46.32;;
61095;Laerm;20450;49.074;9.158;2023-08-21T01:17:30;42.49;40.89;44.31;;
61095;Laerm;20450;49.074;9.158;2023-08-21T01:20:01;42.46;41.14;43.72;;
61095;Laerm;20450;49.074;9.158;2023-08-21T01:22:36;42.48;41.06;44.23;;
61095;Laerm;20450;49.074;9.158;2023-08-21T01:25:08;42.56;41.38;43.99;;
61095;Laerm;20450;49.074;9.158;2023-08-21T01:27:41;42.64;41.14;43.81;;
61095;Laerm;20450;49.074;9.158;2023-08-21T01:30:13;43.03;41.61;44.31;;
61095;Laerm;20450;49.074;9.158;2023-08-21T01:32:59;43.54;42.16;44.76;;
61095;Laerm;20450;49.074;9.158;2023-08-21T01:35:31;43.56;42.35;45.54;;
61095;Laerm;20450;49.074;9.158;2023-08-21T01:38:01;43.53;42.16;44.87;;
61095;Laerm;20450;49.074;9.158;2023-08-21T01:40:32;43.83;42.53;45.45;;
61095;Laerm;20450;49.074;9.158;2023-08-21T01:43:03;58.39;42.65;94.57;;
61095;Laerm;20450;49.074;9.158;2023-08-21T01:45:31;44.12;42.82;46.91;;
61095;Laerm;20450;49.074;9.158;2023-08-21T01:48:05;44.32;42.98;51.02;;
61095;Laerm;20450;49.074;9.158;2023-08-21T01:50:35;44.22;42.88;49.95;;
61095;Laerm;20450;49.074;9.158;2023-08-21T01:53:03;44.14;42.88;50.00;;
61095;Laerm;20450;49.074;9.158;2023-08-21T01:55:34;43.93;42.22;52.92;;
61095;Laerm;20450;49.074;9.158;2023-08-21T01:58:01;43.88;42.59;47.16;;
61095;Laerm;20450;49.074;9.158;2023-08-21T02:00:29;43.79;42.59;45.04;;
61095;Laerm;20450;49.074;9.158;2023-08-21T02:02:58;44.09;42.65;62.01;;
61095;Laerm;20450;49.074;9.158;2023-08-21T02:05:27;44.38;42.88;50.56;;
61095;Laerm;20450;49.074;9.158;2023-08-21T02:07:57;44.63;43.34;46.80;;
61095;Laerm;20450;49.074;9.158;2023-08-21T02:10:25;44.65;43.09;45.75;;
61095;Laerm;20450;49.074;9.158;2023-08-21T02:12:53;44.79;42.98;46.13;;
61095;Laerm;20450;49.074;9.158;2023-08-21T02:15:20;44.58;43.34;45.75;;
61095;Laerm;20450;49.074;9.158;2023-08-21T02:17:47;44.59;43.14;45.89;;
61095;Laerm;20450;49.074;9.158;2023-08-21T02:20:17;44.39;43.04;48.84;;
61095;Laerm;20450;49.074;9.158;2023-08-21T02:22:46;44.17;43.04;45.30;;
61095;Laerm;20450;49.074;9.158;2023-08-21T02:25:13;44.20;42.82;45.27;;
61095;Laerm;20450;49.074;9.158;2023-08-21T02:27:42;44.22;42.82;45.94;;
61095;Laerm;20450;49.074;9.158;2023-08-21T02:30:12;44.20;42.88;45.48;;
61095;Laerm;20450;49.074;9.158;2023-08-21T02:32:41;44.32;42.98;45.80;;
61095;Laerm;20450;49.074;9.158;2023-08-21T02:35:08;44.57;43.14;46.15;;
61095;Laerm;20450;49.074;9.158;2023-08-21T02:37:35;44.82;43.54;49.32;;
61095;Laerm;20450;49.074;9.158;2023-08-21T02:40:04;45.50;43.81;47.72;;
61095;Laerm;20450;49.074;9.158;2023-08-21T02:42:31;45.92;44.51;47.32;;
61095;Laerm;20450;49.074;9.158;2023-08-21T02:45:00;45.50;44.15;46.89;;
61095;Laerm;20450;49.074;9.158;2023-08-21T02:47:28;45.32;44.07;46.57;;
61095;Laerm;20450;49.074;9.158;2023-08-21T02:49:59;45.44;44.15;46.76;;
61095;Laerm;20450;49.074;9.158;2023-08-21T02:52:26;45.68;44.27;46.95;;
61095;Laerm;20450;49.074;9.158;2023-08-21T02:54:56;45.80;44.47;47.22;;
61095;Laerm;20450;49.074;9.158;2023-08-21T02:57:27;45.64;44.23;47.10;;
61095;Laerm;20450;49.074;9.158;2023-08-21T02:59:54;45.74;44.39;47.20;;
61095;Laerm;20450;49.074;9.158;2023-08-21T03:02:22;45.93;44.65;47.79;;
61095;Laerm;20450;49.074;9.158;2023-08-21T03:04:51;46.12;44.69;48.25;;
61095;Laerm;20450;49.074;9.158;2023-08-21T03:07:18;46.13;44.79;48.02;;
61095;Laerm;20450;49.074;9.158;2023-08-21T03:09:47;46.10;44.83;47.55;;
61095;Laerm;20450;49.074;9.158;2023-08-21T03:12:15;46.18;44.76;47.32;;
61095;Laerm;20450;49.074;9.158;2023-08-21T03:14:48;45.85;44.43;47.26;;
61095;Laerm;20450;49.074;9.158;2023-08-21T03:17:17;45.97;44.35;47.70;;
61095;Laerm;20450;49.074;9.158;2023-08-21T03:19:44;46.19;44.98;47.98;;
61095;Laerm;20450;49.074;9.158;2023-08-21T03:22:13;46.10;44.65;47.55;;
61095;Laerm;20450;49.074;9.158;2023-08-21T03:24:40;45.92;44.69;47.36;;
61095;Laerm;20450;49.074;9.158;2023-08-21T03:27:07;46.18;44.76;47.48;;
61095;Laerm;20450;49.074;9.158;2023-08-21T03:29:34;46.06;44.58;48.54;;
61095;Laerm;20450;49.074;9.158;2023-08-21T03:32:06;45.94;44.51;51.60;;
61095;Laerm;20450;49.074;9.158;2023-08-21T03:34:49;45.30;43.86;49.96;;
61095;Laerm;20450;49.074;9.158;2023-08-21T03:37:18;45.22;43.90;47.72;;
61095;Laerm;20450;49.074;9.158;2023-08-21T03:39:50;45.13;43.81;47.36;;
61095;Laerm;20450;49.074;9.158;2023-08-21T03:42:17;45.39;43.77;52.78;;
61095;Laerm;20450;49.074;9.158;2023-08-21T03:44:48;45.24;43.90;47.72;;
61095;Laerm;20450;49.074;9.158;2023-08-21T03:47:16;45.16;43.86;47.10;;
61095;Laerm;20450;49.074;9.158;2023-08-21T03:49:56;45.38;44.07;47.67;;
61095;Laerm;20450;49.074;9.158;2023-08-21T03:52:26;45.31;43.99;47.93;;
61095;Laerm;20450;49.074;9.158;2023-08-21T03:55:02;45.35;44.07;47.91;;
61095;Laerm;20450;49.074;9.158;2023-08-21T03:57:33;45.84;44.15;50.30;;
61095;Laerm;20450;49.074;9.158;2023-08-21T04:00:01;45.33;43.90;46.73;;
61095;Laerm;20450;49.074;9.158;2023-08-21T04:02:36;45.10;43.72;50.33;;
61095;Laerm;20450;49.074;9.158;2023-08-21T04:05:05;44.85;43.63;46.57;;
61095;Laerm;20450;49.074;9.158;2023-08-21T04:07:34;44.95;43.68;46.55;;
61095;Laerm;20450;49.074;9.158;2023-08-21T04:10:03;45.11;43.77;46.89;;
61095;Laerm;20450;49.074;9.158;2023-08-21T04:12:40;45.45;43.77;50.29;;
61095;Laerm;20450;49.074;9.158;2023-08-21T04:15:09;45.49;44.31;47.14;;
61095;Laerm;20450;49.074;9.158;2023-08-21T04:17:40;46.13;44.27;49.40;;
61095;Laerm;20450;49.074;9.158;2023-08-21T04:20:10;46.00;44.58;51.15;;
61095;Laerm;20450;49.074;9.158;2023-08-21T04:22:43;45.78;44.47;47.02;;
61095;Laerm;20450;49.074;9.158;2023-08-21T04:25:10;45.66;44.35;47.44;;
61095;Laerm;20450;49.074;9.158;2023-08-21T04:27:37;45.72;44.23;56.85;;
61095;Laerm;20450;49.074;9.158;2023-08-21T04:30:07;45.47;43.44;50.24;;
61095;Laerm;20450;49.074;9.158;2023-08-21T04:32:37;44.04;41.75;49.08;;
61095;Laerm;20450;49.074;9.158;2023-08-21T04:35:07;42.67;39.81;46.15;;
61095;Laerm;20450;49.074;9.158;2023-08-21T04:37:38;56.50;40.23;92.55;;
61095;Laerm;20450;49.074;9.158;2023-08-21T04:40:14;45.50;43.68;49.04;;
61095;Laerm;20450;49.074;9.158;2023-08-21T04:42:43;45.89;44.27;49.27;;
61095;Laerm;20450;49.074;9.158;2023-08-21T04:45:11;45.08;43.58;49.47;;
61095;Laerm;20450;49.074;9.158;2023-08-21T04:47:40;44.13;42.24;50.71;;
61095;Laerm;20450;49.074;9.158;2023-08-21T04:50:12;43.00;41.38;46.28;;
61095;Laerm;20450;49.074;9.158;2023-08-21T04:52:52;42.99;40.89;51.79;;
61095;Laerm;20450;49.074;9.158;2023-08-21T04:55:23;42.77;41.06;46.02;;
61095;Laerm;20450;49.074;9.158;2023-08-21T04:57:52;43.47;41.46;48.28;;
61095;Laerm;20450;49.074;9.158;2023-08-21T05:00:23;43.53;41.96;46.30;;
61095;Laerm;20450;49.074;9.158;2023-08-21T05:02:52;44.05;42.09;52.15;;
61095;Laerm;20450;49.074;9.158;2023-08-21T05:05:57;44.21;42.29;54.65;;
61095;Laerm;20450;49.074;9.158;2023-08-21T05:09:03;43.39;41.46;63.06;;
61095;Laerm;20450;49.074;9.158;2023-08-21T05:11:34;42.54;39.46;50.76;;
61095;Laerm;20450;49.074;9.158;2023-08-21T05:14:16;42.14;39.70;46.02;;
61095;Laerm;20450;49.074;9.158;2023-08-21T05:18:50;42.15;39.08;50.24;;
61095;Laerm;20450;49.074;9.158;2023-08-21T05:21:45;43.15;40.98;49.44;;
61095;Laerm;20450;49.074;9.158;2023-08-21T05:24:55;42.74;40.43;49.96;;
61095;Laerm;20450;49.074;9.158;2023-08-21T05:27:28;41.52;38.37;48.08;;
61095;Laerm;20450;49.074;9.158;2023-08-21T05:30:25;41.68;38.67;49.92;;
61095;Laerm;20450;49.074;9.158;2023-08-21T05:33:00;41.37;38.37;49.63;;
61095;Laerm;20450;49.074;9.158;2023-08-21T05:35:56;41.97;40.03;46.30;;
61095;Laerm;20450;49.074;9.158;2023-08-21T05:38:26;42.71;39.34;51.67;;
61095;Laerm;20450;49.074;9.158;2023-08-21T05:40:53;42.76;40.23;49.77;;
61095;Laerm;20450;49.074;9.158;2023-08-21T05:51:42;42.08;39.81;45.97;;
61095;Laerm;20450;49.074;9.158;2023-08-21T05:55:11;41.92;38.67;56.99;;
61095;Laerm;20450;49.074;9.158;2023-08-21T05:57:40;41.97;38.52;56.51;;
61095;Laerm;20450;49.074;9.158;2023-08-21T06:00:20;41.57;38.02;49.59;;
61095;Laerm;20450;49.074;9.158;2023-08-21T06:02:50;41.99;38.81;48.40;;
61095;Laerm;20450;49.074;9.158;2023-08-21T06:05:36;42.25;38.67;50.77;;
61095;Laerm;20450;49.074;9.158;2023-08-21T06:08:04;42.30;39.08;49.51;;
61095;Laerm;20450;49.074;9.158;2023-08-21T06:10:34;42.78;39.34;51.78;;
61095;Laerm;20450;49.074;9.158;2023-08-21T06:13:04;42.07;38.95;58.00;;
61095;Laerm;20450;49.074;9.158;2023-08-21T06:15:37;41.90;38.52;50.52;;
61095;Laerm;20450;49.074;9.158;2023-08-21T06:18:11;42.05;39.34;50.08;;
61095;Laerm;20450;49.074;9.158;2023-08-21T06:20:44;42.14;38.95;48.54;;
61095;Laerm;20450;49.074;9.158;2023-08-21T06:23:12;42.73;39.58;55.82;;
61095;Laerm;20450;49.074;9.158;2023-08-21T06:25:39;42.13;38.95;50.28;;
61095;Laerm;20450;49.074;9.158;2023-08-21T06:28:16;42.75;39.81;51.52;;
61095;Laerm;20450;49.074;9.158;2023-08-21T06:30:56;42.38;38.81;57.83;;
61095;Laerm;20450;49.074;9.158;2023-08-21T06:34:16;42.04;38.37;53.07;;
61095;Laerm;20450;49.074;9.158;2023-08-21T06:36:52;42.50;38.67;52.40;;
61095;Laerm;20450;49.074;9.158;2023-08-21T06:39:23;42.44;39.08;50.79;;
61095;Laerm;20450;49.074;9.158;2023-08-21T06:41:57;42.68;38.95;51.25;;
61095;Laerm;20450;49.074;9.158;2023-08-21T06:44:33;41.37;38.37;47.34;;
61095;Laerm;20450;49.074;9.158;2023-08-21T06:47:35;42.97;39.46;51.99;;
61095;Laerm;20450;49.074;9.158;2023-08-21T06:50:13;42.33;38.37;50.94;;
61095;Laerm;20450;49.074;9.158;2023-08-21T06:52:47;42.19;39.08;48.63;;
61095;Laerm;20450;49.074;9.158;2023-08-21T06:57:57;42.74;39.21;49.95;;
61095;Laerm;20450;49.074;9.158;2023-08-21T06:59:21;42.19;38.52;58.50;;
61095;Laerm;20450;49.074;9.158;2023-08-21T07:02:11;41.91;38.47;58.87;;
61095;Laerm;20450;49.074;9.158;2023-08-21T07:04:52;42.16;38.95;52.47;;
61095;Laerm;20450;49.074;9.158;2023-08-21T07:07:19;41.82;39.08;49.11;;
61095;Laerm;20450;49.074;9.158;2023-08-21T07:09:54;42.17;38.95;48.94;;
61095;Laerm;20450;49.074;9.158;2023-08-21T07:12:41;42.61;39.21;52.92;;
61095;Laerm;20450;49.074;9.158;2023-08-21T07:19:41;41.67;37.52;53.05;;
61095;Laerm;20450;49.074;9.158;2023-08-21T07:23:22;42.89;38.67;53.63;;
61095;Laerm;20450;49.074;9.158;2023-08-21T07:26:37;41.75;38.05;47.65;;
61095;Laerm;20450;49.074;9.158;2023-08-21T07:33:35;41.98;38.67;48.42;;
61095;Laerm;20450;49.074;9.158;2023-08-21T07:36:26;42.21;38.05;49.59;;
61095;Laerm;20450;49.074;9.158;2023-08-21T07:39:03;42.70;39.34;52.28;;
61095;Laerm;20450;49.074;9.158;2023-08-21T07:41:43;43.46;39.70;50.16;;
61095;Laerm;20450;49.074;9.158;2023-08-21T07:44:53;42.03;38.21;66.51;;
61095;Laerm;20450;49.074;9.158;2023-08-21T07:47:39;42.08;38.37;51.55;;
61095;Laerm;20450;49.074;9.158;2023-08-21T07:51:06;43.86;39.34;58.47;;
61095;Laerm;20450;49.074;9.158;2023-08-21T07:53:47;42.85;38.52;53.67;;
61095;Laerm;20450;49.074;9.158;2023-08-21T07:57:25;42.42;38.21;51.40;;
61095;Laerm;20450;49.074;9.158;2023-08-21T08:00:28;41.90;38.21;50.83;;
61095;Laerm;20450;49.074;9.158;2023-08-21T08:03:14;41.93;38.05;53.59;;
61095;Laerm;20450;49.074;9.158;2023-08-21T08:05:54;41.95;38.05;51.26;;
61095;Laerm;20450;49.074;9.158;2023-08-21T08:08:23;42.05;38.52;48.10;;
61095;Laerm;20450;49.074;9.158;2023-08-21T08:10:55;42.10;37.70;51.08;;
61095;Laerm;20450;49.074;9.158;2023-08-21T08:13:40;41.82;39.08;51.90;;
61095;Laerm;20450;49.074;9.158;2023-08-21T08:20:13;42.12;38.37;53.71;;
61095;Laerm;20450;49.074;9.158;2023-08-21T08:22:53;42.18;38.81;46.05;;
61095;Laerm;20450;49.074;9.158;2023-08-21T08:25:23;42.18;39.08;48.85;;
61095;Laerm;20450;49.074;9.158;2023-08-21T08:28:02;44.82;38.52;67.64;;
61095;Laerm;20450;49.074;9.158;2023-08-21T08:31:20;42.33;38.60;52.10;;
61095;Laerm;20450;49.074;9.158;2023-08-21T08:34:48;41.82;38.47;51.16;;
61095;Laerm;20450;49.074;9.158;2023-08-21T08:37:54;42.34;39.58;52.67;;
61095;Laerm;20450;49.074;9.158;2023-08-21T08:41:32;41.88;39.08;50.18;;
61095;Laerm;20450;49.074;9.158;2023-08-21T08:44:25;42.22;39.70;55.95;;
61095;Laerm;20450;49.074;9.158;2023-08-21T08:47:19;42.69;39.92;52.78;;
61095;Laerm;20450;49.074;9.158;2023-08-21T08:49:48;42.47;39.58;50.89;;
61095;Laerm;20450;49.074;9.158;2023-08-21T08:52:28;42.76;39.70;51.15;;
61095;Laerm;20450;49.074;9.158;2023-08-21T08:54:59;42.79;39.46;50.89;;
61095;Laerm;20450;49.074;9.158;2023-08-21T08:58:14;42.92;40.13;50.96;;
61095;Laerm;20450;49.074;9.158;2023-08-21T09:12:12;42.35;39.08;47.18;;
61095;Laerm;20450;49.074;9.158;2023-08-21T09:14:50;41.89;38.67;46.82;;
61095;Laerm;20450;49.074;9.158;2023-08-21T09:18:01;42.08;38.95;47.79;;
61095;Laerm;20450;49.074;9.158;2023-08-21T09:20:49;42.61;39.08;52.82;;
61095;Laerm;20450;49.074;9.158;2023-08-21T09:23:43;42.53;38.37;51.28;;
61095;Laerm;20450;49.074;9.158;2023-08-21T09:26:41;42.21;38.67;51.28;;
61095;Laerm;20450;49.074;9.158;2023-08-21T09:29:26;42.09;38.05;52.87;;
61095;Laerm;20450;49.074;9.158;2023-08-21T09:32:20;42.47;38.52;48.80;;
61095;Laerm;20450;49.074;9.158;2023-08-21T09:35:53;41.90;38.95;49.72;;
61095;Laerm;20450;49.074;9.158;2023-08-21T09:39:23;42.44;39.08;54.77;;
61095;Laerm;20450;49.074;9.158;2023-08-21T09:42:14;42.23;38.37;46.71;;
61095;Laerm;20450;49.074;9.158;2023-08-21T09:44:58;42.02;39.34;49.65;;
61095;Laerm;20450;49.074;9.158;2023-08-21T09:48:33;42.25;38.21;49.02;;
61095;Laerm;20450;49.074;9.158;2023-08-21T09:51:35;42.55;38.52;53.00;;
61095;Laerm;20450;49.074;9.158;2023-08-21T09:54:04;43.02;40.33;48.31;;
61095;Laerm;20450;49.074;9.158;2023-08-21T09:56:36;42.39;38.60;53.66;;
61095;Laerm;20450;49.074;9.158;2023-08-21T09:59:29;42.22;38.95;52.38;;
61095;Laerm;20450;49.074;9.158;2023-08-21T10:02:50;42.01;38.81;46.35;;
61095;Laerm;20450;49.074;9.158;2023-08-21T10:05:21;41.97;38.05;49.35;;
61095;Laerm;20450;49.074;9.158;2023-08-21T10:07:58;42.27;37.70;48.29;;
61095;Laerm;20450;49.074;9.158;2023-08-21T10:10:33;42.39;39.08;55.56;;
61095;Laerm;20450;49.074;9.158;2023-08-21T10:13:13;43.29;38.52;50.52;;
61095;Laerm;20450;49.074;9.158;2023-08-21T10:15:46;42.92;39.34;53.60;;
61095;Laerm;20450;49.074;9.158;2023-08-21T10:18:21;42.67;38.52;56.36;;
61095;Laerm;20450;49.074;9.158;2023-08-21T10:20:53;42.02;38.37;58.64;;
61095;Laerm;20450;49.074;9.158;2023-08-21T10:23:27;41.65;37.52;49.94;;
61095;Laerm;20450;49.074;9.158;2023-08-21T10:26:39;42.76;39.08;50.69;;
61095;Laerm;20450;49.074;9.158;2023-08-21T10:29:42;43.43;37.70;53.50;;
61095;Laerm;20450;49.074;9.158;2023-08-21T10:33:11;42.96;40.43;57.40;;
61095;Laerm;20450;49.074;9.158;2023-08-21T10:41:16;42.35;38.37;56.98;;
61095;Laerm;20450;49.074;9.158;2023-08-21T10:44:14;42.15;38.67;49.20;;
61095;Laerm;20450;49.074;9.158;2023-08-21T10:46:53;41.80;38.05;49.91;;
61095;Laerm;20450;49.074;9.158;2023-08-21T10:49:31;41.92;38.52;49.12;;
61095;Laerm;20450;49.074;9.158;2023-08-21T10:52:35;42.23;38.05;51.57;;
61095;Laerm;20450;49.074;9.158;2023-08-21T10:55:07;42.76;38.52;54.18;;
61095;Laerm;20450;49.074;9.158;2023-08-21T10:57:35;42.01;38.37;49.78;;
61095;Laerm;20450;49.074;9.158;2023-08-21T11:00:05;42.15;38.95;48.64;;
61095;Laerm;20450;49.074;9.158;2023-08-21T11:02:33;42.98;39.46;54.38;;
61095;Laerm;20450;49.074;9.158;2023-08-21T11:08:31;42.56;39.21;51.52;;
61095;Laerm;20450;49.074;9.158;2023-08-21T11:10:58;42.85;39.34;59.80;;
61095;Laerm;20450;49.074;9.158;2023-08-21T11:13:26;41.69;38.52;45.77;;
61095;Laerm;20450;49.074;9.158;2023-08-21T11:16:13;42.31;38.95;52.74;;
61095;Laerm;20450;49.074;9.158;2023-08-21T11:18:49;42.47;39.46;52.98;;
61095;Laerm;20450;49.074;9.158;2023-08-21T11:22:00;43.64;39.21;52.15;;
61095;Laerm;20450;49.074;9.158;2023-08-21T11:24:59;42.53;38.05;46.45;;
61095;Laerm;20450;49.074;9.158;2023-08-21T11:27:37;42.97;39.46;49.64;;
61095;Laerm;20450;49.074;9.158;2023-08-21T11:30:23;42.39;38.21;53.65;;
61095;Laerm;20450;49.074;9.158;2023-08-21T11:33:12;43.05;38.52;52.21;;
61095;Laerm;20450;49.074;9.158;2023-08-21T11:36:05;42.58;39.21;46.05;;
61095;Laerm;20450;49.074;9.158;2023-08-21T11:39:18;41.89;38.21;48.07;;
61095;Laerm;20450;49.074;9.158;2023-08-21T11:42:36;42.09;38.21;50.32;;
61095;Laerm;20450;49.074;9.158;2023-08-21T11:49:38;42.17;38.67;50.18;;
61095;Laerm;20450;49.074;9.158;2023-08-21T11:52:39;42.15;38.52;53.15;;
61095;Laerm;20450;49.074;9.158;2023-08-21T11:56:12;42.63;38.67;52.15;;
61095;Laerm;20450;49.074;9.158;2023-08-21T11:58:45;42.03;38.37;51.81;;
61095;Laerm;20450;49.074;9.158;2023-08-21T12:01:32;41.77;38.05;47.08;;
61095;Laerm;20450;49.074;9.158;2023-08-21T12:09:18;42.31;38.05;48.54;;
61095;Laerm;20450;49.074;9.158;2023-08-21T12:12:32;42.26;38.81;49.03;;
61095;Laerm;20450;49.074;9.158;2023-08-21T12:15:30;42.14;38.95;49.41;;
61095;Laerm;20450;49.074;9.158;2023-08-21T12:18:40;42.31;38.81;50.34;;
61095;Laerm;20450;49.074;9.158;2023-08-21T12:21:12;42.98;39.81;51.19;;
61095;Laerm;20450;49.074;9.158;2023-08-21T12:23:41;41.92;38.05;49.20;;
61095;Laerm;20450;49.074;9.158;2023-08-21T12:26:09;42.79;39.08;49.89;;
61095;Laerm;20450;49.074;9.158;2023-08-21T12:28:40;47.56;38.95;70.33;;
61095;Laerm;20450;49.074;9.158;2023-08-21T12:31:10;43.10;39.34;50.09;;
61095;Laerm;20450;49.074;9.158;2023-08-21T12:33:45;42.18;38.05;47.02;;
61095;Laerm;20450;49.074;9.158;2023-08-21T12:36:18;42.95;38.95;54.84;;
61095;Laerm;20450;49.074;9.158;2023-08-21T12:38:48;41.92;38.99;49.24;;
61095;Laerm;20450;49.074;9.158;2023-08-21T12:41:17;43.42;41.06;46.57;;
61095;Laerm;20450;49.074;9.158;2023-08-21T12:44:00;42.67;38.81;51.62;;
61095;Laerm;20450;49.074;9.158;2023-08-21T12:47:09;41.95;38.05;48.87;;
61095;Laerm;20450;49.074;9.158;2023-08-21T12:49:45;42.04;38.95;45.54;;
61095;Laerm;20450;49.074;9.158;2023-08-21T12:53:15;42.90;37.70;52.05;;
61095;Laerm;20450;49.074;9.158;2023-08-21T12:55:44;42.29;38.21;49.65;;
61095;Laerm;20450;49.074;9.158;2023-08-21T12:58:11;42.61;37.88;49.97;;
61095;Laerm;20450;49.074;9.158;2023-08-21T13:00:40;41.88;38.21;59.13;;
61095;Laerm;20450;49.074;9.158;2023-08-21T13:03:07;42.54;39.21;49.94;;
61095;Laerm;20450;49.074;9.158;2023-08-21T13:05:34;42.31;38.21;50.26;;
61095;Laerm;20450;49.074;9.158;2023-08-21T13:08:02;42.03;38.67;50.16;;
61095;Laerm;20450;49.074;9.158;2023-08-21T13:10:57;42.52;38.21;50.62;;
61095;Laerm;20450;49.074;9.158;2023-08-21T13:13:39;41.77;38.52;53.93;;
61095;Laerm;20450;49.074;9.158;2023-08-21T13:16:34;42.53;39.34;51.35;;
61095;Laerm;20450;49.074;9.158;2023-08-21T13:22:57;42.92;38.67;48.16;;
61095;Laerm;20450;49.074;9.158;2023-08-21T13:25:47;42.94;40.23;48.60;;
61095;Laerm;20450;49.074;9.158;2023-08-21T13:28:17;42.07;38.52;47.08;;
61095;Laerm;20450;49.074;9.158;2023-08-21T13:31:28;42.00;38.95;49.12;;
61095;Laerm;20450;49.074;9.158;2023-08-21T13:38:03;42.47;39.21;50.04;;
61095;Laerm;20450;49.074;9.158;2023-08-21T13:41:08;42.29;39.34;49.77;;
61095;Laerm;20450;49.074;9.158;2023-08-21T13:47:18;43.65;38.52;55.65;;
61095;Laerm;20450;49.074;9.158;2023-08-21T13:50:57;44.21;38.60;60.29;;
61095;Laerm;20450;49.074;9.158;2023-08-21T13:54:21;42.74;39.81;51.34;;
61095;Laerm;20450;49.074;9.158;2023-08-21T13:56:48;42.67;39.21;50.10;;
61095;Laerm;20450;49.074;9.158;2023-08-21T13:59:18;41.87;38.67;45.39;;
61095;Laerm;20450;49.074;9.158;2023-08-21T14:01:48;42.17;38.95;53.99;;
61095;Laerm;20450;49.074;9.158;2023-08-21T14:04:34;42.19;37.88;51.41;;
61095;Laerm;20450;49.074;9.158;2023-08-21T14:07:02;43.02;39.46;48.83;;
61095;Laerm;20450;49.074;9.158;2023-08-21T14:09:39;42.93;39.34;51.26;;
61095;Laerm;20450;49.074;9.158;2023-08-21T14:12:24;42.40;38.95;48.64;;
61095;Laerm;20450;49.074;9.158;2023-08-21T14:16:09;42.77;39.70;50.90;;
61095;Laerm;20450;49.074;9.158;2023-08-21T14:18:42;42.23;39.21;47.59;;
61095;Laerm;20450;49.074;9.158;2023-08-21T14:21:12;42.77;40.03;49.21;;
61095;Laerm;20450;49.074;9.158;2023-08-21T14:23:39;42.78;40.03;50.31;;
61095;Laerm;20450;49.074;9.158;2023-08-21T14:26:08;42.57;40.13;56.41;;
61095;Laerm;20450;49.074;9.158;2023-08-21T14:28:40;43.04;40.53;47.63;;
61095;Laerm;20450;49.074;9.158;2023-08-21T14:31:10;42.43;40.03;48.78;;
61095;Laerm;20450;49.074;9.158;2023-08-21T14:33:40;43.82;39.58;58.75;;
61095;Laerm;20450;49.074;9.158;2023-08-21T14:36:07;42.64;39.21;47.93;;
61095;Laerm;20450;49.074;9.158;2023-08-21T14:38:39;42.21;38.52;49.02;;
61095;Laerm;20450;49.074;9.158;2023-08-21T14:41:10;42.28;39.68;48.70;;
61095;Laerm;20450;49.074;9.158;2023-08-21T14:43:39;42.21;39.46;49.14;;
61095;Laerm;20450;49.074;9.158;2023-08-21T14:46:13;42.74;40.03;49.81;;
61095;Laerm;20450;49.074;9.158;2023-08-21T14:49:11;42.56;40.23;56.92;;
61095;Laerm;20450;49.074;9.158;2023-08-21T14:52:05;43.44;41.14;57.48;;
61095;Laerm;20450;49.074;9.158;2023-08-21T14:54:35;44.14;42.22;55.75;;
61095;Laerm;20450;49.074;9.158;2023-08-21T14:57:06;44.14;41.48;59.91;;
61095;Laerm;20450;49.074;9.158;2023-08-21T14:59:46;43.65;41.38;60.49;;
61095;Laerm;20450;49.074;9.158;2023-08-21T15:02:40;43.83;41.96;50.13;;
61095;Laerm;20450;49.074;9.158;2023-08-21T15:05:08;45.13;41.89;57.22;;
61095;Laerm;20450;49.074;9.158;2023-08-21T15:07:41;43.51;40.43;54.89;;
61095;Laerm;20450;49.074;9.158;2023-08-21T15:10:19;43.59;39.34;58.24;;
61095;Laerm;20450;49.074;9.158;2023-08-21T15:12:53;43.10;39.92;57.16;;
61095;Laerm;20450;49.074;9.158;2023-08-21T15:15:48;43.16;40.03;62.61;;
61095;Laerm;20450;49.074;9.158;2023-08-21T15:19:21;43.06;39.58;56.49;;
61095;Laerm;20450;49.074;9.158;2023-08-21T15:22:00;44.19;42.29;54.63;;
61095;Laerm;20450;49.074;9.158;2023-08-21T15:24:31;44.80;43.29;52.85;;
61095;Laerm;20450;49.074;9.158;2023-08-21T15:27:05;44.22;42.59;48.42;;
61095;Laerm;20450;49.074;9.158;2023-08-21T15:29:36;43.99;41.82;49.24;;
61095;Laerm;20450;49.074;9.158;2023-08-21T15:32:05;43.30;40.53;54.22;;
61095;Laerm;20450;49.074;9.158;2023-08-21T15:34:35;43.15;40.71;55.06;;
61095;Laerm;20450;49.074;9.158;2023-08-21T15:37:02;43.54;40.98;55.51;;
61095;Laerm;20450;49.074;9.158;2023-08-21T15:39:32;44.14;42.41;48.02;;
61095;Laerm;20450;49.074;9.158;2023-08-21T15:42:07;44.48;42.59;52.28;;
61095;Laerm;20450;49.074;9.158;2023-08-21T15:45:17;44.66;42.59;61.45;;
61095;Laerm;20450;49.074;9.158;2023-08-21T15:47:53;44.31;42.53;50.60;;
61095;Laerm;20450;49.074;9.158;2023-08-21T15:50:20;44.19;41.61;53.45;;
61095;Laerm;20450;49.074;9.158;2023-08-21T15:52:50;43.11;40.53;50.91;;
61095;Laerm;20450;49.074;9.158;2023-08-21T15:55:19;43.53;40.71;48.36;;
61095;Laerm;20450;49.074;9.158;2023-08-21T15:57:48;43.92;41.68;46.71;;